createdAt,value
2022-10-05T00:00:59.461Z,3.38
2022-10-05T00:03:40.753Z,3.42
2022-10-05T00:06:14.642Z,3.67
2022-10-05T00:08:47.170Z,4.30
2022-10-05T00:11:20.090Z,3.90
2022-10-05T00:13:53.205Z,3.88
2022-10-05T00:16:26.143Z,3.33
2022-10-05T00:19:00.054Z,3.90
2022-10-05T00:21:33.814Z,3.72
2022-10-05T00:24:09.964Z,3.10
2022-10-05T00:26:42.883Z,2.70
2022-10-05T00:29:21.105Z,2.92
2022-10-05T00:31:54.259Z,2.83
2022-10-05T00:34:26.862Z,2.85
2022-10-05T00:36:59.868Z,3.00
2022-10-05T00:39:32.807Z,2.78
2022-10-05T00:42:11.477Z,2.50
2022-10-05T00:44:43.998Z,2.78
2022-10-05T00:47:19.863Z,2.60
2022-10-05T00:50:10.961Z,2.93
2022-10-05T00:52:56.105Z,3.00
2022-10-05T00:55:37.737Z,2.53
2022-10-05T00:58:19.802Z,2.90
2022-10-05T01:00:59.053Z,2.80
2022-10-05T01:03:34.965Z,2.80
2022-10-05T01:06:07.453Z,2.80
2022-10-05T01:08:55.777Z,2.53
2022-10-05T01:11:30.665Z,2.90
2022-10-05T01:14:09.537Z,2.77
2022-10-05T01:17:05.739Z,2.63
2022-10-05T01:19:44.747Z,2.38
2022-10-05T01:22:27.291Z,2.83
2022-10-05T01:25:12.982Z,4.45
2022-10-05T01:27:54.766Z,3.58
2022-10-05T01:30:30.431Z,3.13
2022-10-05T01:33:07.353Z,3.50
2022-10-05T01:35:56.400Z,3.85
2022-10-05T01:38:31.993Z,3.85
2022-10-05T01:41:10.738Z,3.67
2022-10-05T01:43:54.534Z,4.20
2022-10-05T01:46:33.126Z,4.18
2022-10-05T01:49:17.664Z,4.90
2022-10-05T01:51:56.558Z,4.77
2022-10-05T01:54:51.308Z,5.50
2022-10-05T01:58:02.766Z,5.65
2022-10-05T02:00:47.214Z,4.75
2022-10-05T02:03:22.521Z,5.07
2022-10-05T02:05:59.849Z,5.05
2022-10-05T02:08:37.936Z,5.63
2022-10-05T02:11:15.127Z,4.90
2022-10-05T02:13:51.231Z,5.28
2022-10-05T02:16:30.576Z,5.10
2022-10-05T02:19:08.901Z,5.43
2022-10-05T02:21:44.563Z,5.80
2022-10-05T02:24:22.550Z,6.65
2022-10-05T02:26:57.295Z,5.65
2022-10-05T02:29:32.425Z,5.67
2022-10-05T02:32:07.905Z,5.77
2022-10-05T02:34:42.217Z,6.50
2022-10-05T02:37:50.552Z,5.85
2022-10-05T02:40:46.732Z,6.55
2022-10-05T02:43:40.418Z,5.57
2022-10-05T02:46:35.763Z,6.22
2022-10-05T02:49:19.037Z,5.68
2022-10-05T02:51:58.560Z,6.20
2022-10-05T02:54:31.292Z,6.68
2022-10-05T02:57:27.243Z,5.90
2022-10-05T03:00:06.574Z,5.75
2022-10-05T03:02:48.773Z,6.55
2022-10-05T03:05:32.244Z,6.53
2022-10-05T03:08:15.021Z,6.07
2022-10-05T03:10:58.221Z,5.90
2022-10-05T03:13:50.355Z,6.00
2022-10-05T03:16:51.248Z,6.05
2022-10-05T03:19:33.402Z,6.43
2022-10-05T03:22:12.129Z,6.45
2022-10-05T03:24:53.277Z,6.40
2022-10-05T03:27:26.241Z,5.85
2022-10-05T03:30:19.460Z,6.00
2022-10-05T03:33:01.608Z,5.95
2022-10-05T03:35:41.114Z,5.97
2022-10-05T03:38:20.395Z,6.50
2022-10-05T03:40:57.413Z,5.78
2022-10-05T03:43:33.291Z,5.53
2022-10-05T03:46:11.903Z,5.73
2022-10-05T03:48:44.860Z,5.82
2022-10-05T03:51:24.395Z,5.10
2022-10-05T03:54:00.353Z,6.15
2022-10-05T03:56:39.460Z,5.13
2022-10-05T03:59:17.892Z,6.18
2022-10-05T04:02:02.241Z,5.50
2022-10-05T04:04:41.255Z,5.75
2022-10-05T04:07:28.817Z,5.20
2022-10-05T04:10:03.820Z,5.53
2022-10-05T04:12:41.185Z,4.90
2022-10-05T04:15:26.366Z,6.05
2022-10-05T04:18:09.365Z,6.13
2022-10-05T04:20:47.194Z,5.83
2022-10-05T04:23:29.580Z,6.68
2022-10-05T04:26:06.978Z,6.10
2022-10-05T04:28:43.475Z,5.88
2022-10-05T04:31:36.193Z,5.68
2022-10-05T04:34:15.862Z,5.05
2022-10-05T04:36:51.385Z,4.95
2022-10-05T04:39:29.520Z,4.88
2022-10-05T04:42:17.302Z,5.25
2022-10-05T04:45:09.216Z,5.80
2022-10-05T04:47:58.612Z,5.07
2022-10-05T04:50:57.690Z,5.28
2022-10-05T04:53:33.527Z,5.95
2022-10-05T04:56:22.738Z,5.72
2022-10-05T04:59:00.100Z,5.78
2022-10-05T05:01:43.188Z,5.72
2022-10-05T05:04:34.539Z,5.60
2022-10-05T05:07:18.385Z,5.45
2022-10-05T05:10:09.601Z,5.43
2022-10-05T05:13:02.047Z,5.75
2022-10-05T05:15:54.624Z,4.82
2022-10-05T05:18:46.048Z,5.28
2022-10-05T05:21:38.370Z,5.50
2022-10-05T05:24:17.372Z,5.70
2022-10-05T05:26:50.240Z,6.10
2022-10-05T05:29:26.676Z,5.85
2022-10-05T05:31:59.208Z,5.78
2022-10-05T05:34:50.926Z,5.10
2022-10-05T05:37:42.611Z,5.47
2022-10-05T05:40:25.364Z,5.40
2022-10-05T05:43:06.734Z,5.95
2022-10-05T05:46:03.838Z,5.68
2022-10-05T05:48:43.895Z,5.15
2022-10-05T05:51:25.867Z,5.22
2022-10-05T05:54:22.274Z,5.53
2022-10-05T05:57:01.587Z,4.97
2022-10-05T05:59:46.162Z,5.43
2022-10-05T06:02:26.117Z,4.70
2022-10-05T06:05:09.204Z,4.82
2022-10-05T06:07:42.110Z,5.10
2022-10-05T06:10:17.540Z,5.30
2022-10-05T06:13:04.152Z,5.63
2022-10-05T06:15:41.719Z,5.00
2022-10-05T06:18:16.200Z,5.05
2022-10-05T06:21:07.345Z,5.43
2022-10-05T06:23:52.916Z,5.35
2022-10-05T06:26:31.826Z,5.13
2022-10-05T06:29:06.260Z,5.35
2022-10-05T06:31:46.975Z,5.43
2022-10-05T06:34:27.688Z,6.05
2022-10-05T06:37:02.548Z,7.30
2022-10-05T06:39:35.345Z,5.53
2022-10-05T06:42:08.151Z,6.60
2022-10-05T06:45:25.709Z,6.18
2022-10-05T06:48:25.867Z,5.40
2022-10-05T06:51:27.646Z,5.43
2022-10-05T06:54:31.533Z,5.65
2022-10-05T06:57:14.313Z,4.88
2022-10-05T06:59:53.096Z,5.22
2022-10-05T07:02:29.299Z,4.50
2022-10-05T07:05:17.827Z,6.38
2022-10-05T07:07:56.833Z,4.50
2022-10-05T07:10:37.912Z,9.23
2022-10-05T07:13:14.641Z,4.57
2022-10-05T07:15:55.724Z,5.93
2022-10-05T07:18:47.482Z,5.87
2022-10-05T07:21:28.307Z,5.72
2022-10-05T07:24:33.964Z,5.65
2022-10-05T07:27:13.706Z,5.05
2022-10-05T07:29:46.990Z,3.78
2022-10-05T07:32:32.334Z,5.40
2022-10-05T07:35:09.192Z,5.25
2022-10-05T07:37:57.543Z,4.28
2022-10-05T07:40:43.629Z,5.03
2022-10-05T07:43:22.588Z,3.75
2022-10-05T07:46:07.308Z,3.70
2022-10-05T07:49:00.447Z,4.75
2022-10-05T07:51:45.454Z,3.50
2022-10-05T07:54:18.770Z,4.05
2022-10-05T07:57:06.551Z,3.53
2022-10-05T07:59:51.411Z,3.03
2022-10-05T08:02:27.426Z,3.00
2022-10-05T08:05:06.387Z,3.45
2022-10-05T08:07:39.900Z,4.90
2022-10-05T08:10:15.512Z,2.83
2022-10-05T08:12:51.414Z,4.55
2022-10-05T08:15:26.011Z,4.85
2022-10-05T08:18:04.227Z,3.63
2022-10-05T08:20:39.822Z,3.88
2022-10-05T08:23:34.191Z,3.08
2022-10-05T08:26:17.481Z,2.95
2022-10-05T08:28:59.472Z,3.28
2022-10-05T08:31:39.565Z,3.20
2022-10-05T08:34:26.234Z,2.63
2022-10-05T08:36:59.287Z,3.80
2022-10-05T08:39:40.415Z,3.05
2022-10-05T08:42:31.686Z,2.95
2022-10-05T08:45:16.550Z,2.75
2022-10-05T08:48:07.417Z,2.67
2022-10-05T08:51:03.954Z,2.40
2022-10-05T08:53:37.183Z,2.15
2022-10-05T08:56:29.077Z,2.78
2022-10-05T08:59:13.903Z,2.83
2022-10-05T09:02:05.313Z,2.25
2022-10-05T09:04:41.045Z,2.20
2022-10-05T09:07:20.457Z,2.20
2022-10-05T09:10:11.678Z,2.03
2022-10-05T09:13:03.168Z,2.03
2022-10-05T09:15:44.487Z,2.07
2022-10-05T09:18:37.229Z,2.10
2022-10-05T09:21:15.640Z,2.00
2022-10-05T09:23:53.850Z,1.77
2022-10-05T09:26:43.694Z,1.85
2022-10-05T09:29:31.985Z,1.73
2022-10-05T09:32:24.061Z,2.10
2022-10-05T09:35:17.150Z,1.77
2022-10-05T09:37:59.046Z,1.80
2022-10-05T09:40:48.047Z,1.70
2022-10-05T09:43:20.592Z,1.50
2022-10-05T09:46:02.746Z,1.50
2022-10-05T09:48:53.727Z,1.60
2022-10-05T09:51:38.476Z,1.52
2022-10-05T09:54:31.263Z,1.50
2022-10-05T09:57:22.678Z,1.70
2022-10-05T09:59:57.919Z,1.60
2022-10-05T10:02:49.656Z,1.60
2022-10-05T10:05:22.261Z,1.38
2022-10-05T10:07:57.836Z,1.43
2022-10-05T10:10:48.970Z,1.40
2022-10-05T10:13:36.901Z,1.20
2022-10-05T10:16:28.289Z,1.13
2022-10-05T10:19:10.077Z,1.27
2022-10-05T10:21:48.892Z,1.30
2022-10-05T10:24:25.057Z,1.27
2022-10-05T10:27:16.831Z,1.35
2022-10-05T10:29:52.750Z,1.20
2022-10-05T10:32:57.595Z,1.13
2022-10-05T10:35:33.350Z,1.20
2022-10-05T10:38:06.289Z,1.30
2022-10-05T10:40:43.398Z,1.13
2022-10-05T10:43:22.597Z,1.20
2022-10-05T10:45:56.243Z,1.20
2022-10-05T10:48:28.820Z,1.10
2022-10-05T10:51:20.449Z,1.30
2022-10-05T10:54:03.897Z,1.60
2022-10-05T10:56:55.785Z,1.50
2022-10-05T10:59:34.141Z,1.10
2022-10-05T11:02:07.129Z,3.45
2022-10-05T11:04:54.111Z,1.20
2022-10-05T11:07:45.688Z,1.23
2022-10-05T11:10:18.535Z,1.30
2022-10-05T11:12:58.393Z,1.50
2022-10-05T11:15:40.244Z,1.25
2022-10-05T11:18:33.283Z,1.52
2022-10-05T11:21:19.657Z,1.42
2022-10-05T11:24:11.095Z,1.20
2022-10-05T11:26:52.845Z,1.25
2022-10-05T11:29:25.720Z,1.10
2022-10-05T11:32:16.715Z,12.00
2022-10-05T11:34:55.441Z,1.27
2022-10-05T11:37:52.166Z,1.20
2022-10-05T11:40:43.599Z,1.17
2022-10-05T11:43:29.014Z,1.20
2022-10-05T11:46:16.921Z,1.40
2022-10-05T11:48:58.267Z,1.10
2022-10-05T11:51:34.840Z,1.30
2022-10-05T11:54:12.816Z,1.10
2022-10-05T11:57:00.999Z,1.20
2022-10-05T11:59:39.826Z,1.17
2022-10-05T12:02:18.518Z,1.23
2022-10-05T12:04:56.836Z,1.20
2022-10-05T12:07:33.253Z,2.67
2022-10-05T12:10:24.394Z,1.80
2022-10-05T12:12:57.956Z,1.38
2022-10-05T12:15:36.970Z,1.70
2022-10-05T12:18:25.143Z,1.67
2022-10-05T12:21:00.532Z,1.35
2022-10-05T12:23:42.972Z,1.27
2022-10-05T12:26:24.743Z,1.17
2022-10-05T12:29:12.846Z,1.35
2022-10-05T12:31:51.790Z,1.30
2022-10-05T12:34:33.691Z,1.13
2022-10-05T12:37:24.541Z,1.30
2022-10-05T12:40:02.269Z,1.50
2022-10-05T12:42:39.408Z,1.10
2022-10-05T12:45:29.607Z,1.35
2022-10-05T12:48:16.390Z,1.10
2022-10-05T12:51:15.668Z,1.45
2022-10-05T12:54:06.934Z,1.20
2022-10-05T12:56:51.828Z,1.60
2022-10-05T12:59:34.587Z,1.80
2022-10-05T13:02:25.755Z,1.90
2022-10-05T13:05:10.428Z,1.58
2022-10-05T13:07:52.694Z,2.00
2022-10-05T13:10:25.561Z,2.05
2022-10-05T13:13:07.408Z,1.70
2022-10-05T13:15:42.883Z,1.60
2022-10-05T13:18:34.786Z,1.95
2022-10-05T13:21:13.180Z,1.42
2022-10-05T13:23:57.359Z,1.40
2022-10-05T13:26:35.725Z,2.80
2022-10-05T13:29:22.898Z,2.63
2022-10-05T13:32:15.534Z,1.58
2022-10-05T13:34:48.470Z,1.60
2022-10-05T13:37:39.617Z,1.42
2022-10-05T13:40:20.444Z,2.42
2022-10-05T13:43:04.312Z,1.70
2022-10-05T13:45:42.998Z,1.60
2022-10-05T13:48:22.450Z,1.60
2022-10-05T13:51:02.331Z,1.98
2022-10-05T13:53:34.886Z,1.80
2022-10-05T13:56:26.400Z,1.80
2022-10-05T13:58:59.906Z,1.92
2022-10-05T14:01:35.827Z,2.15
2022-10-05T14:04:08.312Z,2.27
2022-10-05T14:06:42.632Z,1.88
2022-10-05T14:09:21.252Z,2.10
2022-10-05T14:12:12.179Z,1.70
2022-10-05T14:14:55.211Z,1.95
2022-10-05T14:17:34.225Z,2.10
2022-10-05T14:20:21.968Z,2.17
2022-10-05T14:22:56.949Z,2.20
2022-10-05T14:25:30.719Z,1.90
2022-10-05T14:28:12.612Z,1.63
2022-10-05T14:30:58.886Z,1.90
2022-10-05T14:33:33.632Z,1.90
2022-10-05T14:36:12.290Z,1.58
2022-10-05T14:38:52.856Z,1.90
2022-10-05T14:41:28.578Z,1.80
2022-10-05T14:44:13.801Z,1.90
2022-10-05T14:46:52.335Z,1.67
2022-10-05T14:49:29.709Z,1.90
2022-10-05T14:52:22.080Z,1.90
2022-10-05T14:55:01.344Z,2.42
2022-10-05T14:57:48.516Z,2.13
2022-10-05T15:00:21.405Z,2.03
2022-10-05T15:02:53.966Z,2.30
2022-10-05T15:05:31.763Z,1.90
2022-10-05T15:08:27.356Z,1.83
2022-10-05T15:11:06.635Z,2.28
2022-10-05T15:13:43.921Z,2.15
2022-10-05T15:16:25.409Z,2.30
2022-10-05T15:19:21.264Z,2.78
2022-10-05T15:22:00.538Z,3.55
2022-10-05T15:24:58.085Z,2.85
2022-10-05T15:27:33.803Z,3.30
2022-10-05T15:30:09.576Z,2.63
2022-10-05T15:32:51.476Z,2.30
2022-10-05T15:35:36.342Z,2.35
2022-10-05T15:38:21.296Z,2.03
2022-10-05T15:41:07.195Z,2.00
2022-10-05T15:43:46.841Z,2.50
2022-10-05T15:46:29.139Z,2.40
2022-10-05T15:49:02.171Z,2.08
2022-10-05T15:51:41.108Z,2.10
2022-10-05T15:54:35.245Z,2.72
2022-10-05T15:57:26.400Z,7.60
2022-10-05T16:00:05.069Z,3.40
2022-10-05T16:02:57.856Z,2.10
2022-10-05T16:06:08.068Z,2.60
2022-10-05T16:09:02.707Z,2.88
2022-10-05T16:12:04.917Z,2.35
2022-10-05T16:15:00.101Z,2.78
2022-10-05T16:17:34.774Z,2.42
2022-10-05T16:20:21.014Z,3.25
2022-10-05T16:22:56.976Z,3.53
2022-10-05T16:25:29.505Z,2.88
2022-10-05T16:28:05.695Z,3.10
2022-10-05T16:30:56.480Z,2.70
2022-10-05T16:33:32.147Z,2.92
2022-10-05T16:36:28.213Z,3.30
2022-10-05T16:39:03.770Z,4.60
2022-10-05T16:41:49.251Z,5.32
2022-10-05T16:44:29.802Z,2.85
2022-10-05T16:47:27.553Z,3.00
2022-10-05T16:50:06.842Z,3.20
2022-10-05T16:52:41.545Z,3.63
2022-10-05T16:55:20.366Z,3.20
2022-10-05T16:57:56.016Z,2.95
2022-10-05T17:01:01.112Z,3.28
2022-10-05T17:03:34.531Z,4.45
2022-10-05T17:06:20.351Z,3.85
2022-10-05T17:08:55.970Z,3.15
2022-10-05T17:11:31.616Z,3.40
2022-10-05T17:14:05.456Z,3.45
2022-10-05T17:16:54.807Z,2.95
2022-10-05T17:19:39.644Z,3.25
2022-10-05T17:22:21.862Z,2.93
2022-10-05T17:25:12.433Z,3.55
2022-10-05T17:28:15.394Z,3.73
2022-10-05T17:30:54.208Z,3.30
2022-10-05T17:33:29.943Z,3.20
2022-10-05T17:36:05.023Z,3.45
2022-10-05T17:38:44.923Z,3.03
2022-10-05T17:41:20.253Z,3.70
2022-10-05T17:44:13.582Z,3.28
2022-10-05T17:46:48.336Z,5.43
2022-10-05T17:49:23.120Z,6.50
2022-10-05T17:52:15.391Z,5.10
2022-10-05T17:55:06.646Z,3.30
2022-10-05T17:57:39.935Z,3.38
2022-10-05T18:00:33.620Z,2.80
2022-10-05T18:03:24.932Z,3.20
2022-10-05T18:06:16.651Z,4.03
2022-10-05T18:08:50.067Z,4.07
2022-10-05T18:11:28.830Z,4.20
2022-10-05T18:14:19.802Z,3.85
2022-10-05T18:17:03.424Z,5.00
2022-10-05T18:19:37.937Z,3.88
2022-10-05T18:22:15.640Z,3.67
2022-10-05T18:24:56.454Z,4.10
2022-10-05T18:27:44.253Z,3.10
2022-10-05T18:30:24.295Z,2.85
2022-10-05T18:33:00.016Z,2.53
2022-10-05T18:35:51.329Z,3.20
2022-10-05T18:38:33.450Z,3.40
2022-10-05T18:41:17.691Z,2.55
2022-10-05T18:43:51.356Z,2.40
2022-10-05T18:46:24.136Z,2.42
2022-10-05T18:49:17.025Z,2.45
2022-10-05T18:51:51.811Z,2.50
2022-10-05T18:54:37.104Z,3.50
2022-10-05T18:57:36.149Z,3.20
2022-10-05T19:00:21.909Z,2.50
2022-10-05T19:02:57.976Z,2.42
2022-10-05T19:06:00.388Z,2.87
2022-10-05T19:08:41.600Z,2.55
2022-10-05T19:11:52.956Z,3.22
2022-10-05T19:14:34.623Z,3.33
2022-10-05T19:17:19.856Z,3.93
2022-10-05T19:20:17.713Z,3.20
2022-10-05T19:22:56.690Z,3.30
2022-10-05T19:25:48.543Z,3.37
2022-10-05T19:28:35.681Z,3.47
2022-10-05T19:31:27.212Z,3.58
2022-10-05T19:34:00.122Z,3.00
2022-10-05T19:36:49.119Z,2.93
2022-10-05T19:39:42.598Z,3.30
2022-10-05T19:42:23.347Z,3.00
2022-10-05T19:45:03.840Z,3.05
2022-10-05T19:47:48.332Z,3.58
2022-10-05T19:50:23.991Z,3.63
2022-10-05T19:52:59.211Z,2.90
2022-10-05T19:55:34.935Z,3.10
2022-10-05T19:58:25.090Z,3.55
2022-10-05T20:00:59.866Z,2.45
2022-10-05T20:03:33.329Z,2.58
2022-10-05T20:06:07.131Z,2.60
2022-10-05T20:08:46.376Z,2.78
2022-10-05T20:11:19.278Z,2.60
2022-10-05T20:13:55.427Z,3.50
2022-10-05T20:16:48.640Z,3.22
2022-10-05T20:19:47.345Z,2.72
2022-10-05T20:22:35.192Z,3.90
2022-10-05T20:25:19.747Z,3.53
2022-10-05T20:27:55.675Z,3.47
2022-10-05T20:30:29.071Z,2.67
2022-10-05T20:33:04.885Z,3.00
2022-10-05T20:35:37.352Z,2.73
2022-10-05T20:38:19.782Z,2.30
2022-10-05T20:40:52.276Z,2.75
2022-10-05T20:43:32.658Z,2.60
2022-10-05T20:46:06.614Z,2.35
2022-10-05T20:48:49.070Z,2.70
2022-10-05T20:51:21.569Z,2.35
2022-10-05T20:53:56.359Z,2.72
2022-10-05T20:56:30.232Z,2.53
2022-10-05T20:59:20.862Z,2.97
2022-10-05T21:01:53.810Z,3.07
2022-10-05T21:04:40.601Z,2.55
2022-10-05T21:07:13.866Z,2.45
2022-10-05T21:09:49.726Z,2.40
2022-10-05T21:12:22.273Z,2.00
2022-10-05T21:14:55.144Z,3.00
2022-10-05T21:17:27.635Z,4.15
2022-10-05T21:20:11.491Z,3.28
2022-10-05T21:22:44.022Z,3.10
2022-10-05T21:25:16.881Z,2.38
2022-10-05T21:27:50.462Z,2.67
2022-10-05T21:30:23.276Z,3.00
2022-10-05T21:32:56.190Z,3.10
2022-10-05T21:35:29.077Z,3.13
2022-10-05T21:38:01.522Z,2.20
2022-10-05T21:40:34.711Z,2.63
2022-10-05T21:43:07.465Z,2.53
2022-10-05T21:45:40.746Z,2.75
2022-10-05T21:48:15.323Z,2.95
2022-10-05T21:50:48.269Z,2.85
2022-10-05T21:53:23.272Z,3.08
2022-10-05T21:55:59.642Z,2.58
2022-10-05T21:58:35.313Z,2.20
2022-10-05T22:01:08.347Z,2.28
2022-10-05T22:03:41.205Z,1.97
2022-10-05T22:06:14.056Z,2.00
2022-10-05T22:08:46.655Z,1.77
2022-10-05T22:11:19.795Z,1.90
2022-10-05T22:13:53.428Z,1.73
2022-10-05T22:16:27.290Z,1.98
2022-10-05T22:19:02.879Z,2.00
2022-10-05T22:21:39.106Z,1.80
2022-10-05T22:24:14.531Z,2.10
2022-10-05T22:26:48.547Z,1.80
2022-10-05T22:29:21.391Z,1.70
2022-10-05T22:31:55.917Z,1.98
2022-10-05T22:34:28.751Z,1.60
2022-10-05T22:37:02.278Z,1.85
2022-10-05T22:39:34.907Z,1.90
2022-10-05T22:42:08.248Z,2.25
2022-10-05T22:44:40.787Z,1.90
2022-10-05T22:47:13.824Z,2.15
2022-10-05T22:49:46.347Z,2.28
2022-10-05T22:52:19.115Z,2.28
2022-10-05T22:54:51.596Z,1.80
2022-10-05T22:57:24.471Z,2.20
2022-10-05T22:59:56.959Z,2.00
2022-10-05T23:02:29.823Z,2.20
2022-10-05T23:05:02.376Z,2.10
2022-10-05T23:07:41.965Z,1.92
2022-10-05T23:10:16.573Z,1.80
2022-10-05T23:13:00.618Z,1.92
2022-10-05T23:15:34.625Z,1.85
2022-10-05T23:18:07.385Z,1.80
2022-10-05T23:20:40.561Z,2.03
2022-10-05T23:23:13.402Z,2.10
2022-10-05T23:25:45.920Z,2.10
2022-10-05T23:28:18.816Z,2.28
2022-10-05T23:30:51.350Z,2.53
2022-10-05T23:33:24.224Z,2.30
2022-10-05T23:36:04.019Z,1.70
2022-10-05T23:38:36.972Z,1.90
2022-10-05T23:41:09.895Z,2.40
2022-10-05T23:43:43.250Z,2.40
2022-10-05T23:46:16.351Z,2.20
2022-10-05T23:48:50.632Z,2.40
2022-10-05T23:51:23.127Z,2.08
2022-10-05T23:53:56.086Z,1.90
2022-10-05T23:56:28.607Z,1.77
2022-10-05T23:59:01.371Z,2.67
